Time;durP1;ratioP1;P1;durP2;ratioP2;P2;SDS_P1;SDS_P2;PMS_P1;PMS_P2;Temp;Humidity;BMP_temperature;BMP_pressure;BME280_temperature;BME280_humidity;BME280_pressure;Samples;Min_cycle;Max_cycle;Signal;HPM_P1;HPM_P2
2023/04/28 00:01:50;;;;;;;8.68;4.68;;;8.50;99.90;;;;;;5030153;28;20091;-33
2023/04/28 00:04:15;;;;;;;9.80;4.88;;;8.50;99.90;;;;;;5029249;28;20144;-34
2023/04/28 00:06:41;;;;;;;7.90;4.38;;;8.40;99.90;;;;;;5041961;28;20056;-33
2023/04/28 00:09:09;;;;;;;6.85;4.05;;;8.40;99.90;;;;;;5036764;28;20070;-34
2023/04/28 00:11:38;;;;;;;6.18;3.85;;;8.40;99.90;;;;;;5035139;28;20045;-34
2023/04/28 00:14:04;;;;;;;8.30;4.57;;;8.40;99.90;;;;;;5030011;28;20518;-33
2023/04/28 00:16:30;;;;;;;10.82;4.90;;;8.30;99.90;;;;;;5029032;28;20057;-33
2023/04/28 00:18:56;;;;;;;8.52;4.38;;;8.30;99.90;;;;;;5029604;28;20521;-33
2023/04/28 00:21:22;;;;;;;8.80;5.20;;;8.20;99.90;;;;;;5037324;28;20050;-33
2023/04/28 00:23:47;;;;;;;8.43;4.47;;;8.20;99.90;;;;;;5049650;28;20450;-33
2023/04/28 00:26:13;;;;;;;8.68;4.80;;;8.20;99.90;;;;;;5033188;28;20052;-33
2023/04/28 00:28:38;;;;;;;9.35;4.53;;;8.20;99.90;;;;;;5037402;28;20487;-33
2023/04/28 00:31:12;;;;;;;8.60;4.55;;;8.10;99.90;;;;;;5029714;28;20049;-34
2023/04/28 00:33:38;;;;;;;8.23;4.70;;;8.10;99.90;;;;;;5028930;28;20054;-33
2023/04/28 00:36:04;;;;;;;9.27;4.72;;;8.10;99.90;;;;;;5033770;28;20453;-33
2023/04/28 00:38:30;;;;;;;8.93;4.45;;;8.00;99.90;;;;;;5046714;28;20106;-33
2023/04/28 00:40:56;;;;;;;11.25;4.78;;;8.00;99.90;;;;;;5034901;28;20110;-33
2023/04/28 00:43:21;;;;;;;10.77;4.82;;;8.00;99.90;;;;;;5048719;28;20411;-34
2023/04/28 00:45:49;;;;;;;11.85;5.50;;;8.00;99.90;;;;;;5036622;28;20077;-33
2023/04/28 00:48:14;;;;;;;8.15;4.70;;;8.00;99.90;;;;;;5038181;28;20093;-33
2023/04/28 00:50:42;;;;;;;8.05;4.65;;;8.00;99.90;;;;;;5037176;28;20057;-34
2023/04/28 00:53:09;;;;;;;10.57;4.80;;;7.90;99.90;;;;;;5036614;28;20049;-34
2023/04/28 00:55:36;;;;;;;8.73;4.47;;;7.90;99.90;;;;;;5038131;28;20064;-33
2023/04/28 00:58:01;;;;;;;9.15;4.90;;;7.90;99.90;;;;;;5028870;28;20072;-33
2023/04/28 01:00:27;;;;;;;8.38;4.75;;;7.90;99.90;;;;;;5036970;28;20053;-34
2023/04/28 01:02:54;;;;;;;9.02;4.72;;;7.80;99.90;;;;;;5033845;28;20554;-33
2023/04/28 01:05:20;;;;;;;8.13;4.53;;;7.90;99.90;;;;;;5048435;28;20063;-33
2023/04/28 01:07:45;;;;;;;11.07;5.13;;;7.80;99.90;;;;;;5036926;28;20130;-33
2023/04/28 01:10:11;;;;;;;11.20;4.60;;;7.90;99.90;;;;;;5029431;28;20053;-34
2023/04/28 01:12:37;;;;;;;12.48;4.40;;;7.80;99.90;;;;;;5028417;28;20058;-33
2023/04/28 01:15:03;;;;;;;9.18;4.57;;;7.80;99.90;;;;;;5030620;28;20073;-33
2023/04/28 01:17:28;;;;;;;8.30;4.70;;;7.80;99.90;;;;;;5032643;28;20483;-34
2023/04/28 01:19:54;;;;;;;10.02;4.85;;;7.80;99.90;;;;;;5032532;28;20055;-33
2023/04/28 01:22:20;;;;;;;10.27;5.18;;;7.80;99.90;;;;;;5033189;28;20521;-33
2023/04/28 01:24:46;;;;;;;10.20;4.63;;;7.80;99.90;;;;;;5037720;28;20049;-34
2023/04/28 01:27:11;;;;;;;9.73;4.45;;;7.80;99.90;;;;;;5039433;28;20133;-33
2023/04/28 01:29:37;;;;;;;11.30;4.95;;;7.80;99.90;;;;;;5042043;28;20132;-33
2023/04/28 01:32:03;;;;;;;9.88;4.63;;;7.70;99.90;;;;;;5032816;28;20057;-34
2023/04/28 01:34:29;;;;;;;9.32;4.78;;;7.70;99.90;;;;;;5049356;28;20108;-34
2023/04/28 01:36:55;;;;;;;12.35;4.95;;;7.70;99.90;;;;;;5039828;28;20468;-33
2023/04/28 01:39:20;;;;;;;9.45;4.93;;;7.70;99.90;;;;;;5032861;28;20053;-33
2023/04/28 01:41:46;;;;;;;7.97;4.75;;;7.70;99.90;;;;;;5031828;28;20515;-34
2023/04/28 01:44:12;;;;;;;9.25;4.70;;;7.70;99.90;;;;;;5032632;28;20049;-34
2023/04/28 01:46:37;;;;;;;7.97;4.80;;;7.60;99.90;;;;;;5047459;28;20530;-33
2023/04/28 01:49:03;;;;;;;9.15;4.65;;;7.60;99.90;;;;;;5032448;28;20052;-33
2023/04/28 01:51:30;;;;;;;7.95;4.38;;;7.60;99.90;;;;;;5040102;28;20132;-33
2023/04/28 01:53:56;;;;;;;10.20;4.82;;;7.60;99.90;;;;;;5032227;28;20065;-33
2023/04/28 01:56:21;;;;;;;8.50;4.78;;;7.60;99.90;;;;;;5024834;28;20045;-33
2023/04/28 01:58:47;;;;;;;7.75;4.53;;;7.50;99.90;;;;;;5039799;28;20057;-33
2023/04/28 02:01:12;;;;;;;7.57;4.50;;;7.60;99.90;;;;;;5032491;28;20396;-33
2023/04/28 02:03:38;;;;;;;8.65;4.43;;;7.50;99.90;;;;;;5033693;28;20424;-34
2023/04/28 02:06:04;;;;;;;8.75;5.07;;;7.50;99.90;;;;;;5037810;28;20083;-33
2023/04/28 02:08:30;;;;;;;7.68;4.35;;;7.40;99.90;;;;;;5039536;28;20573;-33
2023/04/28 02:10:56;;;;;;;12.05;4.90;;;7.40;99.90;;;;;;5032348;28;20092;-33
2023/04/28 02:13:22;;;;;;;9.80;4.30;;;7.50;99.90;;;;;;5039637;28;20049;-33
2023/04/28 02:15:48;;;;;;;10.15;4.20;;;7.50;99.90;;;;;;5040598;28;20458;-33
2023/04/28 02:18:13;;;;;;;9.40;4.60;;;7.40;99.90;;;;;;5038381;28;20128;-33
2023/04/28 02:20:39;;;;;;;10.05;5.05;;;7.40;99.90;;;;;;5033317;28;20128;-33
2023/04/28 02:23:05;;;;;;;8.18;4.32;;;7.40;99.90;;;;;;5031841;28;20061;-33
2023/04/28 02:25:31;;;;;;;7.93;4.35;;;7.40;99.90;;;;;;5039521;28;20088;-33
2023/04/28 02:27:56;;;;;;;10.60;4.60;;;7.40;99.90;;;;;;5044066;28;20055;-34
2023/04/28 02:30:22;;;;;;;9.18;4.25;;;7.40;99.90;;;;;;5051751;28;20057;-33
2023/04/28 02:32:48;;;;;;;9.45;4.93;;;7.40;99.90;;;;;;5031525;28;20111;-33
2023/04/28 02:35:13;;;;;;;8.55;4.45;;;7.40;99.90;;;;;;5031424;28;20125;-33
2023/04/28 02:37:39;;;;;;;10.32;4.32;;;7.50;99.90;;;;;;5030912;28;20139;-33
2023/04/28 02:40:06;;;;;;;9.80;5.00;;;7.50;99.90;;;;;;5036618;28;20045;-33
2023/04/28 02:42:31;;;;;;;8.27;4.20;;;7.50;99.90;;;;;;5034008;28;20053;-33
2023/04/28 02:44:57;;;;;;;11.88;6.68;;;7.50;99.90;;;;;;5035497;28;20514;-33
2023/04/28 02:47:22;;;;;;;8.50;4.55;;;7.40;99.90;;;;;;5035800;28;20164;-33
2023/04/28 02:49:48;;;;;;;8.40;4.60;;;7.40;99.90;;;;;;5033258;28;20427;-33
2023/04/28 02:52:14;;;;;;;10.18;4.60;;;7.40;99.90;;;;;;5045398;28;20057;-33
2023/04/28 02:54:40;;;;;;;7.00;4.22;;;7.40;99.90;;;;;;5040271;28;20053;-33
2023/04/28 02:57:05;;;;;;;8.65;4.28;;;7.40;99.90;;;;;;5046942;28;20061;-33
2023/04/28 02:59:31;;;;;;;9.20;4.90;;;7.40;99.90;;;;;;5030963;28;20111;-33
2023/04/28 03:01:57;;;;;;;8.57;4.57;;;7.40;99.90;;;;;;5039236;28;20049;-33
2023/04/28 03:04:22;;;;;;;10.75;4.93;;;7.40;99.90;;;;;;5030983;28;20049;-33
2023/04/28 03:06:48;;;;;;;9.50;4.70;;;7.40;99.90;;;;;;5038874;28;20048;-33
2023/04/28 03:09:15;;;;;;;7.53;4.22;;;7.40;99.90;;;;;;5031087;28;20132;-33
2023/04/28 03:11:40;;;;;;;7.97;4.75;;;7.50;99.90;;;;;;5031179;28;20071;-33
2023/04/28 03:14:06;;;;;;;7.30;4.15;;;7.40;99.90;;;;;;5050611;28;20502;-33
2023/04/28 03:16:32;;;;;;;8.75;4.40;;;7.40;99.90;;;;;;5050731;28;20084;-33
2023/04/28 03:18:58;;;;;;;7.53;4.13;;;7.40;99.90;;;;;;5050193;28;20057;-33
2023/04/28 03:21:26;;;;;;;9.82;4.78;;;7.40;99.90;;;;;;5051070;28;20053;-33
2023/04/28 03:23:52;;;;;;;9.73;5.05;;;7.40;99.90;;;;;;5030877;28;20061;-33
2023/04/28 03:26:18;;;;;;;7.75;4.07;;;7.40;99.90;;;;;;5036940;28;20079;-33
2023/04/28 03:28:44;;;;;;;11.50;5.43;;;7.40;99.90;;;;;;5040072;28;20073;-33
2023/04/28 03:31:09;;;;;;;9.90;4.82;;;7.40;99.90;;;;;;5030922;28;20056;-32
2023/04/28 03:33:35;;;;;;;9.10;4.93;;;7.40;99.90;;;;;;5032549;28;20112;-33
2023/04/28 03:36:01;;;;;;;8.60;5.15;;;7.40;99.90;;;;;;5049827;28;20075;-33
2023/04/28 03:38:26;;;;;;;7.82;4.72;;;7.40;99.90;;;;;;5034863;28;20454;-33
2023/04/28 03:40:52;;;;;;;8.73;4.53;;;7.30;99.90;;;;;;5031990;28;20062;-32
2023/04/28 03:43:18;;;;;;;8.40;4.63;;;7.30;99.90;;;;;;5036538;28;20100;-33
2023/04/28 03:45:44;;;;;;;8.77;4.53;;;7.30;99.90;;;;;;5029919;28;20049;-32
2023/04/28 03:48:09;;;;;;;7.35;4.22;;;7.30;99.90;;;;;;5038221;28;20064;-33
2023/04/28 03:50:35;;;;;;;8.25;4.47;;;7.30;99.90;;;;;;5030639;28;20053;-32
2023/04/28 03:53:01;;;;;;;10.52;5.28;;;7.30;99.90;;;;;;5028112;28;20049;-32
2023/04/28 03:55:26;;;;;;;9.63;5.25;;;7.30;99.90;;;;;;5044985;28;20053;-32
2023/04/28 03:57:52;;;;;;;9.40;4.97;;;7.30;99.90;;;;;;5049302;28;20079;-34
2023/04/28 04:00:18;;;;;;;10.20;5.63;;;7.30;99.90;;;;;;5044405;28;20077;-32
2023/04/28 04:02:43;;;;;;;11.60;4.10;;;7.30;99.90;;;;;;5030509;28;20144;-35
2023/04/28 04:05:09;;;;;;;10.25;5.07;;;7.30;99.90;;;;;;5049943;28;20048;-33
2023/04/28 04:07:35;;;;;;;9.27;4.70;;;7.30;99.90;;;;;;5049760;28;20049;-32
2023/04/28 04:10:01;;;;;;;10.52;5.20;;;7.30;99.90;;;;;;5032943;28;20045;-33
2023/04/28 04:12:26;;;;;;;8.95;4.93;;;7.30;99.90;;;;;;5035099;28;20104;-32
2023/04/28 04:14:52;;;;;;;10.55;4.90;;;7.30;99.90;;;;;;5047202;28;20521;-32
2023/04/28 04:17:17;;;;;;;16.45;4.88;;;7.30;99.90;;;;;;5044686;28;20514;-32
2023/04/28 04:19:43;;;;;;;8.73;5.28;;;7.40;99.90;;;;;;5029057;28;20049;-33
2023/04/28 04:22:09;;;;;;;9.43;4.93;;;7.30;99.90;;;;;;5042092;28;20068;-33
2023/04/28 04:24:34;;;;;;;9.50;4.90;;;7.40;99.90;;;;;;5033850;28;20551;-32
2023/04/28 04:27:00;;;;;;;10.48;4.60;;;7.40;99.90;;;;;;5011494;28;20041;-32
2023/04/28 04:29:26;;;;;;;9.43;5.22;;;7.40;99.90;;;;;;5029694;28;20164;-32
2023/04/28 04:31:51;;;;;;;9.70;5.32;;;7.40;99.90;;;;;;5028972;28;20053;-32
2023/04/28 04:34:17;;;;;;;9.95;5.20;;;7.40;99.90;;;;;;5029629;28;20061;-32
2023/04/28 04:36:43;;;;;;;10.02;5.13;;;7.40;99.90;;;;;;5036752;28;20440;-32
2023/04/28 04:39:08;;;;;;;10.05;5.45;;;7.40;99.90;;;;;;5033018;28;20083;-33
2023/04/28 04:41:34;;;;;;;9.05;5.30;;;7.40;99.90;;;;;;5042710;28;20512;-32
2023/04/28 04:44:00;;;;;;;9.10;4.43;;;7.40;99.90;;;;;;5030662;28;20414;-32
2023/04/28 04:46:25;;;;;;;13.07;5.28;;;7.40;99.90;;;;;;5035640;28;20412;-32
2023/04/28 04:48:51;;;;;;;8.57;4.68;;;7.40;99.90;;;;;;5036517;28;20064;-33
2023/04/28 04:51:17;;;;;;;8.65;5.07;;;7.40;99.90;;;;;;5033592;28;20052;-33
2023/04/28 04:53:43;;;;;;;8.45;4.80;;;7.50;99.90;;;;;;5049242;28;20491;-32
2023/04/28 04:56:08;;;;;;;11.25;5.07;;;7.50;99.90;;;;;;5028612;28;20057;-32
2023/04/28 04:58:34;;;;;;;8.82;4.28;;;7.50;99.90;;;;;;5029622;28;20045;-32
2023/04/28 05:00:59;;;;;;;10.55;5.10;;;7.50;99.90;;;;;;5045366;28;20045;-32
2023/04/28 05:03:25;;;;;;;11.13;5.47;;;7.50;99.90;;;;;;5034636;28;20068;-32
2023/04/28 05:05:51;;;;;;;10.60;5.22;;;7.50;99.90;;;;;;5031172;28;20076;-32
2023/04/28 05:08:16;;;;;;;11.15;5.28;;;7.50;99.90;;;;;;5041548;28;20403;-32
2023/04/28 05:10:42;;;;;;;9.02;4.75;;;7.50;99.90;;;;;;5033330;28;20053;-32
2023/04/28 05:13:08;;;;;;;9.82;5.35;;;7.50;99.90;;;;;;5036898;28;20400;-33
2023/04/28 05:15:33;;;;;;;12.88;5.47;;;7.60;99.90;;;;;;5029079;28;20053;-32
2023/04/28 05:17:59;;;;;;;8.77;4.90;;;7.60;99.90;;;;;;5029044;28;20050;-32
2023/04/28 05:20:25;;;;;;;12.10;5.00;;;7.60;99.90;;;;;;5028823;28;20058;-32
2023/04/28 05:22:50;;;;;;;10.00;4.25;;;7.60;99.90;;;;;;5036912;28;20065;-32
2023/04/28 05:25:16;;;;;;;10.07;4.45;;;7.70;99.90;;;;;;5037373;28;20057;-33
2023/04/28 05:27:42;;;;;;;8.30;4.88;;;7.70;99.90;;;;;;5029224;28;20049;-32
2023/04/28 05:30:09;;;;;;;11.77;5.03;;;7.70;99.90;;;;;;5032038;28;20447;-32
2023/04/28 05:32:36;;;;;;;8.15;4.68;;;7.70;99.90;;;;;;5025968;28;20050;-32
2023/04/28 05:35:02;;;;;;;8.18;4.47;;;7.80;99.90;;;;;;5028520;28;20046;-32
2023/04/28 05:37:27;;;;;;;8.40;4.40;;;7.80;99.90;;;;;;5034375;28;20118;-32
2023/04/28 05:39:54;;;;;;;7.03;4.10;;;7.80;99.90;;;;;;5031186;28;20121;-33
2023/04/28 05:42:20;;;;;;;9.07;4.47;;;7.80;99.90;;;;;;5044559;28;20548;-33
2023/04/28 05:44:45;;;;;;;9.82;5.20;;;7.80;99.90;;;;;;5028660;28;20132;-33
2023/04/28 05:47:11;;;;;;;10.38;4.25;;;7.90;99.90;;;;;;5028500;28;20472;-33
2023/04/28 05:49:37;;;;;;;8.15;4.30;;;7.90;99.90;;;;;;5029008;28;20050;-33
2023/04/28 05:52:03;;;;;;;7.07;4.00;;;7.90;99.90;;;;;;5027858;28;20060;-33
2023/04/28 05:54:29;;;;;;;7.68;4.28;;;8.00;99.90;;;;;;5037078;28;20061;-33
2023/04/28 05:56:55;;;;;;;7.55;4.50;;;8.00;99.90;;;;;;5028294;28;20526;-33
2023/04/28 05:59:21;;;;;;;7.18;3.58;;;8.00;99.90;;;;;;5043703;28;20049;-33
2023/04/28 06:01:47;;;;;;;9.75;4.78;;;8.10;99.90;;;;;;5031401;28;20491;-33
2023/04/28 06:04:12;;;;;;;10.05;4.03;;;8.10;99.90;;;;;;5034166;28;20060;-33
2023/04/28 06:06:38;;;;;;;7.43;4.55;;;8.10;99.90;;;;;;5037220;28;20049;-33
2023/04/28 06:09:04;;;;;;;6.53;3.50;;;8.10;99.90;;;;;;5031670;28;20134;-33
2023/04/28 06:11:30;;;;;;;7.57;4.28;;;8.10;99.90;;;;;;5031923;28;20056;-33
2023/04/28 06:13:55;;;;;;;9.07;4.88;;;8.10;99.90;;;;;;5031426;28;20551;-33
2023/04/28 06:16:22;;;;;;;10.25;4.70;;;8.10;99.90;;;;;;5043859;28;20171;-33
2023/04/28 06:18:48;;;;;;;9.55;5.10;;;8.10;99.90;;;;;;5051413;28;20080;-33
2023/04/28 06:21:15;;;;;;;9.57;4.70;;;8.10;99.90;;;;;;5032008;28;20053;-35
2023/04/28 06:23:41;;;;;;;11.23;5.20;;;8.20;99.90;;;;;;5031358;28;20056;-35
2023/04/28 06:26:07;;;;;;;10.00;4.85;;;8.20;99.90;;;;;;5039890;28;20048;-35
2023/04/28 06:28:33;;;;;;;6.75;4.10;;;8.30;99.90;;;;;;5032042;28;20418;-34
2023/04/28 06:30:59;;;;;;;9.82;4.20;;;8.30;99.90;;;;;;5039388;28;20049;-35
2023/04/28 06:33:24;;;;;;;8.18;3.95;;;8.50;99.90;;;;;;5050331;28;20220;-35
2023/04/28 06:35:51;;;;;;;10.43;4.80;;;8.60;99.90;;;;;;5035592;28;20060;-35
2023/04/28 06:38:17;;;;;;;6.25;4.20;;;8.60;99.90;;;;;;5039421;28;20060;-35
2023/04/28 06:40:44;;;;;;;8.70;4.60;;;8.70;99.90;;;;;;5031836;28;20057;-35
2023/04/28 06:43:10;;;;;;;7.82;4.53;;;8.70;99.90;;;;;;5030984;28;20140;-35
2023/04/28 06:45:37;;;;;;;7.47;4.68;;;8.80;99.90;;;;;;5039390;28;20042;-35
2023/04/28 06:48:02;;;;;;;10.65;4.47;;;8.80;99.90;;;;;;5030529;28;20476;-35
2023/04/28 06:50:28;;;;;;;9.02;4.75;;;8.90;99.90;;;;;;5031774;28;20053;-36
2023/04/28 06:52:54;;;;;;;10.23;5.28;;;8.80;99.90;;;;;;5031623;28;20384;-36
2023/04/28 06:55:19;;;;;;;6.72;3.78;;;8.90;99.90;;;;;;5030778;28;20045;-35
2023/04/28 06:57:45;;;;;;;9.65;4.63;;;8.90;99.90;;;;;;5031680;28;20115;-35
2023/04/28 07:00:12;;;;;;;8.60;3.53;;;9.00;99.90;;;;;;5030405;28;20043;-35
2023/04/28 07:02:37;;;;;;;10.18;4.72;;;9.00;99.90;;;;;;5031592;28;20077;-35
2023/04/28 07:05:04;;;;;;;6.63;4.00;;;9.10;99.90;;;;;;5030618;28;20073;-35
2023/04/28 07:07:30;;;;;;;8.05;4.90;;;9.10;99.90;;;;;;5030925;28;20045;-35
2023/04/28 07:09:55;;;;;;;7.35;4.05;;;9.20;99.90;;;;;;5046497;28;20045;-36
2023/04/28 07:12:21;;;;;;;6.45;3.97;;;9.30;99.90;;;;;;5029258;28;20499;-35
2023/04/28 07:14:47;;;;;;;7.80;4.38;;;9.40;99.90;;;;;;5030937;28;20104;-35
2023/04/28 07:17:13;;;;;;;7.05;4.35;;;9.40;99.90;;;;;;5038418;28;20494;-35
2023/04/28 07:19:39;;;;;;;6.80;3.83;;;9.50;99.90;;;;;;5051524;28;20418;-35
2023/04/28 07:22:05;;;;;;;8.45;4.70;;;9.60;99.90;;;;;;5049746;28;20553;-36
2023/04/28 07:24:30;;;;;;;8.38;4.00;;;9.60;99.90;;;;;;5045775;28;20057;-36
2023/04/28 07:26:56;;;;;;;8.68;4.30;;;9.60;99.90;;;;;;5030855;28;20049;-36
2023/04/28 07:29:22;;;;;;;8.02;4.20;;;9.60;99.90;;;;;;5030044;28;20045;-35
2023/04/28 07:31:49;;;;;;;7.30;4.30;;;9.60;99.90;;;;;;5045434;28;20123;-36
2023/04/28 07:34:15;;;;;;;7.40;4.32;;;9.70;99.90;;;;;;5031807;28;20392;-35
2023/04/28 07:36:40;;;;;;;8.93;4.82;;;9.70;99.90;;;;;;5030509;28;20060;-36
2023/04/28 07:39:06;;;;;;;7.10;4.15;;;9.80;99.90;;;;;;5038706;28;20075;-35
2023/04/28 07:41:37;;;;;;;8.82;4.93;;;9.80;99.90;;;;;;5050408;28;20132;-36
2023/04/28 07:44:09;;;;;;;6.13;3.88;;;9.80;99.90;;;;;;5033742;28;20114;-36
2023/04/28 07:46:35;;;;;;;10.07;4.88;;;9.90;99.90;;;;;;5046454;28;20057;-36
2023/04/28 07:49:00;;;;;;;6.70;4.53;;;9.90;99.90;;;;;;5030430;28;20061;-36
2023/04/28 07:51:26;;;;;;;7.50;4.70;;;10.00;99.90;;;;;;5046437;28;20067;-35
2023/04/28 07:53:52;;;;;;;8.70;4.53;;;10.10;99.90;;;;;;5036149;28;20061;-36
2023/04/28 07:56:17;;;;;;;7.45;4.88;;;10.20;99.90;;;;;;5049172;28;20053;-35
2023/04/28 07:58:43;;;;;;;9.68;4.53;;;10.30;99.90;;;;;;5045912;28;20440;-36
2023/04/28 08:01:10;;;;;;;8.02;4.13;;;10.40;99.90;;;;;;5029898;28;20539;-36
2023/04/28 08:03:36;;;;;;;9.30;4.75;;;10.50;99.90;;;;;;5029615;28;20053;-36
2023/04/28 08:06:02;;;;;;;8.80;3.78;;;10.60;99.90;;;;;;5029641;28;20045;-35
2023/04/28 08:08:29;;;;;;;6.90;4.13;;;10.70;99.90;;;;;;5028963;28;20068;-35
2023/04/28 08:10:55;;;;;;;7.82;4.40;;;10.90;99.90;;;;;;5035910;28;20131;-36
2023/04/28 08:13:20;;;;;;;9.68;4.53;;;11.00;99.90;;;;;;5047829;28;20060;-35
2023/04/28 08:15:48;;;;;;;9.48;4.30;;;11.10;99.90;;;;;;5029825;28;20125;-36
2023/04/28 08:18:14;;;;;;;8.90;4.70;;;11.10;99.90;;;;;;5037515;28;20048;-35
2023/04/28 08:20:40;;;;;;;7.75;4.30;;;11.20;99.90;;;;;;5038206;28;20057;-35
2023/04/28 08:23:06;;;;;;;8.90;4.78;;;11.30;99.90;;;;;;5029503;28;20514;-35
2023/04/28 08:25:32;;;;;;;9.45;4.57;;;11.40;99.90;;;;;;5029183;28;20081;-36
2023/04/28 08:27:57;;;;;;;8.95;4.03;;;11.40;99.90;;;;;;5029886;28;20056;-36
2023/04/28 08:30:23;;;;;;;9.80;5.35;;;11.50;99.90;;;;;;5028664;28;20057;-36
2023/04/28 08:32:49;;;;;;;7.78;4.63;;;11.50;99.90;;;;;;5029862;28;20445;-36
2023/04/28 08:35:14;;;;;;;8.35;4.47;;;11.50;99.90;;;;;;5029885;28;20434;-36
2023/04/28 08:37:41;;;;;;;9.45;4.50;;;11.60;99.90;;;;;;5045436;28;20104;-36
2023/04/28 08:40:10;;;;;;;9.65;5.10;;;11.70;99.90;;;;;;5029803;28;20510;-36
2023/04/28 08:42:36;;;;;;;6.75;4.38;;;11.80;99.90;;;;;;5045434;28;20045;-36
2023/04/28 08:45:04;;;;;;;6.82;3.75;;;11.90;99.90;;;;;;5035867;28;20037;-36
2023/04/28 08:47:34;;;;;;;10.55;4.55;;;11.90;99.90;;;;;;5040864;28;20124;-36
2023/04/28 08:50:04;;;;;;;8.48;4.63;;;11.90;99.90;;;;;;5035797;28;20051;-36
2023/04/28 08:52:31;;;;;;;7.32;4.40;;;11.90;99.90;;;;;;5028571;28;20056;-36
2023/04/28 08:55:04;;;;;;;7.75;4.35;;;11.80;99.90;;;;;;5034818;28;20053;-36
2023/04/28 08:57:37;;;;;;;7.72;4.78;;;11.80;99.90;;;;;;5030486;28;20057;-36
2023/04/28 09:00:03;;;;;;;11.35;4.35;;;11.80;99.90;;;;;;5035942;28;20495;-36
2023/04/28 09:02:29;;;;;;;5.70;3.88;;;11.80;99.90;;;;;;5028790;28;20053;-35
2023/04/28 09:04:54;;;;;;;9.85;4.00;;;11.80;99.90;;;;;;5042526;28;20510;-36
2023/04/28 09:07:20;;;;;;;8.20;3.95;;;11.90;99.90;;;;;;5031830;28;20049;-36
2023/04/28 09:09:46;;;;;;;6.93;4.20;;;11.90;99.90;;;;;;5029369;28;20053;-36
2023/04/28 09:12:11;;;;;;;7.80;4.28;;;12.00;99.90;;;;;;5029511;28;20049;-36
2023/04/28 09:14:38;;;;;;;7.20;3.75;;;12.10;99.90;;;;;;5028121;28;20496;-36
2023/04/28 09:17:11;;;;;;;7.07;3.83;;;12.20;99.90;;;;;;5043491;28;20048;-36
2023/04/28 09:19:38;;;;;;;7.47;4.55;;;12.30;99.90;;;;;;5046016;28;20045;-36
2023/04/28 09:22:05;;;;;;;7.00;4.03;;;12.40;99.90;;;;;;5034852;28;20060;-36
2023/04/28 09:24:33;;;;;;;8.07;3.80;;;12.60;99.90;;;;;;5029588;28;20096;-36
2023/04/28 09:27:01;;;;;;;7.18;4.10;;;12.70;99.90;;;;;;5028785;28;20565;-36
2023/04/28 09:29:30;;;;;;;9.73;4.20;;;12.90;99.90;;;;;;5028524;28;20045;-36
2023/04/28 09:32:15;;;;;;;6.80;4.30;;;13.10;99.90;;;;;;5037123;28;20492;-35
2023/04/28 09:34:52;;;;;;;7.28;4.13;;;13.40;99.90;;;;;;5028565;28;20454;-36
2023/04/28 09:37:23;;;;;;;8.57;4.40;;;13.50;99.90;;;;;;5025791;28;20054;-35
2023/04/28 09:39:54;;;;;;;9.23;4.13;;;13.70;99.90;;;;;;5035779;28;20434;-36
2023/04/28 09:42:34;;;;;;;7.72;4.55;;;13.70;99.90;;;;;;5045668;28;20049;-36
2023/04/28 09:45:18;;;;;;;6.70;4.10;;;13.80;99.90;;;;;;5040113;28;20061;-35
2023/04/28 09:47:46;;;;;;;7.45;4.38;;;14.00;99.90;;;;;;5033446;28;20160;-35
2023/04/28 09:50:15;;;;;;;7.32;4.00;;;14.10;99.90;;;;;;5047481;28;20053;-35
2023/04/28 09:52:44;;;;;;;6.47;4.50;;;14.20;99.90;;;;;;5048150;28;20083;-35
2023/04/28 09:55:11;;;;;;;5.88;3.80;;;14.30;99.90;;;;;;5052042;28;20103;-34
2023/04/28 09:57:37;;;;;;;7.38;4.22;;;14.50;99.90;;;;;;5043815;28;20056;-34
2023/04/28 10:00:05;;;;;;;8.82;3.97;;;14.60;99.90;;;;;;5032290;28;20056;-35
2023/04/28 10:02:33;;;;;;;7.07;4.45;;;14.70;99.90;;;;;;5039565;28;20103;-35
2023/04/28 10:04:59;;;;;;;6.82;4.05;;;14.70;99.90;;;;;;5031246;28;20049;-35
2023/04/28 10:07:26;;;;;;;7.25;3.42;;;14.60;99.90;;;;;;5032250;28;20049;-34
2023/04/28 10:09:52;;;;;;;6.97;4.22;;;14.70;99.90;;;;;;5039993;28;20056;-34
2023/04/28 10:12:22;;;;;;;6.13;3.95;;;14.70;99.90;;;;;;5032066;28;20065;-34
2023/04/28 10:14:49;;;;;;;6.80;4.13;;;14.60;99.90;;;;;;5040110;28;20144;-34
2023/04/28 10:17:16;;;;;;;6.75;4.00;;;14.60;99.90;;;;;;5031879;28;20057;-34
2023/04/28 10:19:46;;;;;;;6.28;4.22;;;14.50;99.90;;;;;;5031810;28;20510;-34
2023/04/28 10:22:49;;;;;;;7.50;4.03;;;14.30;99.90;;;;;;5036528;28;20041;-34
2023/04/28 10:25:24;;;;;;;5.88;3.97;;;14.30;99.90;;;;;;5047890;28;20053;-35
2023/04/28 10:27:50;;;;;;;7.40;4.53;;;14.30;99.90;;;;;;5040252;28;20543;-34
2023/04/28 10:30:17;;;;;;;11.40;4.47;;;14.30;99.90;;;;;;5039676;28;20049;-34
2023/04/28 10:32:44;;;;;;;7.28;4.15;;;14.30;99.90;;;;;;5031790;28;20046;-34
2023/04/28 10:35:29;;;;;;;5.68;3.90;;;14.30;99.90;;;;;;5034017;28;20168;-34
2023/04/28 10:38:05;;;;;;;7.88;4.78;;;14.40;99.90;;;;;;5042099;28;20046;-34
2023/04/28 10:40:33;;;;;;;10.90;4.72;;;14.40;99.90;;;;;;5037102;28;20076;-34
2023/04/28 10:42:58;;;;;;;7.75;4.20;;;14.50;99.90;;;;;;5042242;28;20045;-34
2023/04/28 10:45:55;;;;;;;8.70;3.88;;;14.50;99.90;;;;;;5031742;28;20047;-34
2023/04/28 10:48:46;;;;;;;6.03;4.22;;;14.50;99.90;;;;;;5028630;28;20057;-34
2023/04/28 10:51:15;;;;;;;8.63;4.35;;;14.70;99.90;;;;;;5026491;28;20045;-34
2023/04/28 10:53:43;;;;;;;6.60;4.53;;;14.60;99.90;;;;;;5045550;28;20144;-34
2023/04/28 10:56:13;;;;;;;6.85;4.47;;;14.60;99.90;;;;;;5050391;28;20049;-34
2023/04/28 10:58:42;;;;;;;10.13;5.32;;;14.60;99.90;;;;;;5051279;28;20130;-34
2023/04/28 11:01:20;;;;;;;12.68;7.25;;;14.60;99.90;;;;;;5050700;28;20564;-34
2023/04/28 11:03:50;;;;;;;13.90;7.57;;;14.50;99.90;;;;;;5051173;28;20057;-34
2023/04/28 11:06:25;;;;;;;13.90;7.95;;;14.40;99.90;;;;;;5050644;28;20560;-34
2023/04/28 11:08:52;;;;;;;10.88;7.03;;;14.30;99.90;;;;;;5051004;28;20063;-34
2023/04/28 11:11:20;;;;;;;12.65;7.93;;;14.10;99.90;;;;;;5050667;28;22232;-36
2023/04/28 11:13:46;;;;;;;16.15;9.32;;;14.00;99.90;;;;;;5050581;28;20053;-35
2023/04/28 11:16:15;;;;;;;14.88;8.40;;;14.00;99.90;;;;;;5050309;28;20166;-35
2023/04/28 11:18:40;;;;;;;14.98;9.45;;;13.90;99.90;;;;;;5051183;28;20465;-36
2023/04/28 11:21:07;;;;;;;15.60;10.10;;;13.90;99.90;;;;;;5050501;28;20057;-35
2023/04/28 11:23:33;;;;;;;17.13;11.15;;;13.90;99.90;;;;;;5051124;28;20106;-36
2023/04/28 11:25:58;;;;;;;22.58;13.00;;;14.00;99.90;;;;;;5050359;28;20061;-35
2023/04/28 11:28:24;;;;;;;18.90;12.38;;;14.00;99.90;;;;;;5050133;28;20060;-36
2023/04/28 11:30:50;;;;;;;23.60;13.52;;;14.00;99.90;;;;;;5050306;28;20495;-36
2023/04/28 11:33:16;;;;;;;17.58;11.45;;;14.00;99.90;;;;;;5049795;28;20048;-36
2023/04/28 11:35:42;;;;;;;18.90;12.68;;;13.90;99.90;;;;;;5050957;28;20491;-35
2023/04/28 11:38:08;;;;;;;21.10;13.05;;;13.80;99.90;;;;;;5049617;28;20490;-36
2023/04/28 11:40:34;;;;;;;16.73;12.23;;;13.80;99.90;;;;;;5050470;28;20124;-36
2023/04/28 11:43:00;;;;;;;17.55;12.30;;;13.70;99.90;;;;;;5050407;28;20486;-36
2023/04/28 11:45:26;;;;;;;18.77;13.18;;;13.80;99.90;;;;;;5049925;28;20045;-35
2023/04/28 11:47:51;;;;;;;17.35;11.93;;;13.80;99.90;;;;;;5050171;28;20049;-35
2023/04/28 11:50:34;;;;;;;18.00;12.18;;;13.70;99.90;;;;;;5049435;28;20045;-36
2023/04/28 11:53:00;;;;;;;16.05;11.35;;;13.70;99.90;;;;;;5050089;28;20064;-36
2023/04/28 11:55:27;;;;;;;19.42;13.05;;;13.60;99.90;;;;;;5049543;28;20507;-35
2023/04/28 11:58:21;;;;;;;18.33;12.85;;;13.50;99.90;;;;;;5050094;28;20049;-36
2023/04/28 12:01:09;;;;;;;23.95;13.88;;;13.50;99.90;;;;;;5033535;28;20053;-36
2023/04/28 12:03:45;;;;;;;19.15;12.55;;;13.50;99.90;;;;;;5033138;28;20049;-36
2023/04/28 12:06:11;;;;;;;19.70;13.18;;;13.50;99.90;;;;;;5036485;28;20059;-36
2023/04/28 12:08:37;;;;;;;20.85;14.13;;;13.50;99.90;;;;;;5031056;28;20081;-36
2023/04/28 12:11:13;;;;;;;18.92;13.23;;;13.40;99.90;;;;;;5035336;28;20057;-36
2023/04/28 12:13:40;;;;;;;19.83;13.57;;;13.40;99.90;;;;;;5032485;28;20048;-38
2023/04/28 12:16:07;;;;;;;18.65;13.02;;;13.40;99.90;;;;;;5029885;28;20065;-36
2023/04/28 12:18:36;;;;;;;19.50;14.45;;;13.40;99.90;;;;;;5031757;28;20099;-36
2023/04/28 12:21:02;;;;;;;20.77;13.98;;;13.30;99.90;;;;;;5044865;28;20053;-37
2023/04/28 12:23:32;;;;;;;22.20;15.45;;;13.40;99.90;;;;;;5037870;28;20056;-36
2023/04/28 12:25:59;;;;;;;20.38;15.75;;;13.40;99.90;;;;;;5049330;28;20486;-36
2023/04/28 12:28:39;;;;;;;23.27;16.63;;;13.30;99.90;;;;;;5040693;28;20054;-35
2023/04/28 12:31:07;;;;;;;21.50;14.90;;;13.30;99.90;;;;;;5033157;28;20052;-36
2023/04/28 12:33:36;;;;;;;22.33;15.40;;;13.20;99.90;;;;;;5029630;28;20053;-35
2023/04/28 12:36:04;;;;;;;20.90;15.57;;;13.10;99.90;;;;;;5049548;28;20509;-36
2023/04/28 12:38:31;;;;;;;22.30;16.17;;;13.00;99.90;;;;;;5048420;28;20040;-36
2023/04/28 12:40:57;;;;;;;23.08;16.10;;;13.10;99.90;;;;;;5037162;28;20458;-36
2023/04/28 12:43:23;;;;;;;20.92;15.57;;;13.10;99.90;;;;;;5029625;28;20084;-36
2023/04/28 12:45:53;;;;;;;23.00;16.30;;;13.10;99.90;;;;;;5040123;28;20081;-36
2023/04/28 12:48:19;;;;;;;19.48;14.57;;;13.10;99.90;;;;;;5048344;28;20045;-36